createdAt,value
2023-01-29T00:00:18.616Z,102170.34
2023-01-29T00:03:07.012Z,102169.25
2023-01-29T00:05:35.542Z,102165.45
2023-01-29T00:08:04.107Z,102162.00
2023-01-29T00:10:32.458Z,102161.42
2023-01-29T00:13:00.800Z,102162.90
2023-01-29T00:15:29.090Z,102161.34
2023-01-29T00:17:57.436Z,102172.61
2023-01-29T00:20:25.743Z,102143.46
2023-01-29T00:22:54.130Z,102174.55
2023-01-29T00:25:22.697Z,102179.16
2023-01-29T00:27:51.783Z,102182.40
2023-01-29T00:30:21.182Z,102189.14
2023-01-29T00:32:49.640Z,102185.57
2023-01-29T00:35:18.051Z,102187.82
2023-01-29T00:37:46.313Z,102195.30
2023-01-29T00:40:15.424Z,102194.54
2023-01-29T00:43:05.652Z,102198.30
2023-01-29T00:45:34.625Z,102203.34
2023-01-29T00:48:04.455Z,102201.92
2023-01-29T00:50:32.872Z,102204.22
2023-01-29T00:53:01.743Z,102202.57
2023-01-29T00:55:30.174Z,102206.10
2023-01-29T00:57:58.470Z,102205.59
2023-01-29T01:00:26.849Z,102203.58
2023-01-29T01:03:07.792Z,102196.20
2023-01-29T01:05:39.295Z,102193.90
2023-01-29T01:08:28.218Z,102192.15
2023-01-29T01:11:05.279Z,102189.80
2023-01-29T01:13:34.948Z,102182.86
2023-01-29T01:16:13.206Z,102194.43
2023-01-29T01:18:42.767Z,102198.69
2023-01-29T01:21:11.226Z,102206.77
2023-01-29T01:23:40.298Z,102201.29
2023-01-29T01:26:11.082Z,102195.76
2023-01-29T01:28:39.716Z,102191.84
2023-01-29T01:31:12.472Z,102183.17
2023-01-29T01:33:41.285Z,102177.40
2023-01-29T01:36:09.976Z,102183.96
2023-01-29T01:38:45.358Z,102178.54
2023-01-29T01:41:20.186Z,102171.98
2023-01-29T01:43:49.587Z,102163.76
2023-01-29T01:46:18.551Z,102170.54
2023-01-29T01:48:52.842Z,102169.41
2023-01-29T01:51:24.763Z,102165.06
2023-01-29T01:54:08.436Z,102157.20
2023-01-29T01:56:44.254Z,102147.26
2023-01-29T01:59:19.761Z,102144.98
2023-01-29T02:01:53.846Z,102140.22
2023-01-29T02:04:43.901Z,102137.48
2023-01-29T02:07:34.051Z,102126.46
2023-01-29T02:10:17.503Z,102114.30
2023-01-29T02:12:46.781Z,102105.60
2023-01-29T02:15:17.543Z,102105.58
2023-01-29T02:17:48.499Z,102102.95
2023-01-29T02:20:29.221Z,102098.77
2023-01-29T02:23:33.981Z,102089.89
2023-01-29T02:26:39.698Z,102092.77
2023-01-29T02:29:25.333Z,102090.89
2023-01-29T02:32:17.727Z,102081.08
2023-01-29T02:35:30.283Z,102093.20
2023-01-29T02:38:35.872Z,102074.92
2023-01-29T02:41:22.569Z,102078.23
2023-01-29T02:43:57.654Z,102077.79
2023-01-29T02:46:38.389Z,102079.80
2023-01-29T02:49:13.047Z,102077.00
2023-01-29T02:51:53.183Z,102073.14
2023-01-29T02:54:41.430Z,102072.14
2023-01-29T02:57:23.497Z,102076.48
2023-01-29T02:59:58.204Z,102069.49
2023-01-29T03:02:34.749Z,102065.80
2023-01-29T03:05:06.158Z,102061.91
2023-01-29T03:07:41.423Z,102060.80
2023-01-29T03:10:31.159Z,102048.20
2023-01-29T03:13:13.823Z,102066.39
2023-01-29T03:15:48.567Z,102065.77
2023-01-29T03:18:43.846Z,102066.36
2023-01-29T03:21:51.698Z,102047.89
2023-01-29T03:24:56.614Z,102061.52
2023-01-29T03:27:55.450Z,102063.85
2023-01-29T03:30:46.736Z,102061.34
2023-01-29T03:33:46.269Z,102051.02
2023-01-29T03:36:45.370Z,102049.33
2023-01-29T03:39:16.583Z,102045.42
2023-01-29T03:42:10.268Z,102039.13
2023-01-29T03:44:54.713Z,102042.60
2023-01-29T03:47:40.652Z,101987.20
2023-01-29T03:50:16.372Z,102000.39
2023-01-29T03:52:53.712Z,102026.10
2023-01-29T03:55:32.621Z,102020.35
2023-01-29T03:58:37.207Z,102016.36
2023-01-29T04:01:21.336Z,101993.36
2023-01-29T04:04:05.960Z,102004.00
2023-01-29T04:06:38.340Z,101997.33
2023-01-29T04:09:16.613Z,101981.95
2023-01-29T04:11:50.611Z,101986.70
2023-01-29T04:14:19.367Z,101990.97
2023-01-29T04:16:52.711Z,101975.23
2023-01-29T04:19:31.793Z,101982.84
2023-01-29T04:22:14.218Z,101977.13
2023-01-29T04:24:42.997Z,101978.51
2023-01-29T04:27:23.396Z,101983.69
2023-01-29T04:29:55.421Z,101972.10
2023-01-29T04:32:34.784Z,101986.16
2023-01-29T04:35:06.222Z,101976.70
2023-01-29T04:37:55.629Z,101967.89
2023-01-29T04:40:44.105Z,101972.20
2023-01-29T04:43:51.832Z,101970.50
2023-01-29T04:46:27.059Z,101916.58
2023-01-29T04:49:34.545Z,101959.31
2023-01-29T04:52:17.026Z,101954.41
2023-01-29T04:54:58.578Z,101945.70
2023-01-29T04:57:40.647Z,101919.55
2023-01-29T05:00:12.717Z,101955.59
2023-01-29T05:02:43.440Z,101933.30
2023-01-29T05:05:15.220Z,101950.00
2023-01-29T05:07:44.335Z,101952.98
2023-01-29T05:10:15.370Z,101955.83
2023-01-29T05:12:47.909Z,101960.42
2023-01-29T05:15:23.345Z,101910.50
2023-01-29T05:17:53.928Z,101951.17
2023-01-29T05:20:22.921Z,101938.54
2023-01-29T05:22:51.375Z,101936.63
2023-01-29T05:25:26.683Z,101944.27
2023-01-29T05:28:13.642Z,101950.10
2023-01-29T05:30:43.441Z,101942.73
2023-01-29T05:33:23.448Z,101937.52
2023-01-29T05:35:52.279Z,101938.50
2023-01-29T05:38:21.736Z,101935.78
2023-01-29T05:40:50.589Z,101937.62
2023-01-29T05:43:21.463Z,101939.46
2023-01-29T05:46:00.957Z,101946.48
2023-01-29T05:48:31.503Z,101949.51
2023-01-29T05:51:04.382Z,101943.89
2023-01-29T05:53:33.695Z,101926.16
2023-01-29T05:56:03.472Z,101932.09
2023-01-29T05:58:32.314Z,101931.92
2023-01-29T06:01:11.297Z,101928.40
2023-01-29T06:03:39.602Z,101927.66
2023-01-29T06:06:08.528Z,101929.18
2023-01-29T06:08:37.254Z,101936.80
2023-01-29T06:11:08.445Z,101935.73
2023-01-29T06:13:36.771Z,101930.98
2023-01-29T06:16:09.579Z,101939.04
2023-01-29T06:18:38.516Z,101942.07
2023-01-29T06:21:10.493Z,101942.30
2023-01-29T06:23:39.075Z,101937.86
2023-01-29T06:26:13.104Z,101935.85
2023-01-29T06:28:42.873Z,101934.56
2023-01-29T06:31:30.371Z,101931.94
2023-01-29T06:34:00.291Z,101918.54
2023-01-29T06:36:29.045Z,101924.71
2023-01-29T06:38:57.597Z,101927.73
2023-01-29T06:41:26.833Z,101931.30
2023-01-29T06:43:55.109Z,101931.78
2023-01-29T06:46:23.508Z,101936.04
2023-01-29T06:48:51.816Z,101934.09
2023-01-29T06:51:21.541Z,101937.11
2023-01-29T06:53:50.029Z,101934.09
2023-01-29T06:56:18.285Z,101933.53
2023-01-29T06:58:46.743Z,101928.43
2023-01-29T07:01:29.275Z,101932.85
2023-01-29T07:04:01.793Z,101928.17
2023-01-29T07:06:31.039Z,101923.70
2023-01-29T07:08:59.963Z,101917.10
2023-01-29T07:11:28.571Z,101915.48
2023-01-29T07:13:57.063Z,101916.84
2023-01-29T07:16:26.676Z,101918.11
2023-01-29T07:18:55.178Z,101919.61
2023-01-29T07:21:24.219Z,101918.83
2023-01-29T07:23:52.552Z,101916.60
2023-01-29T07:26:20.978Z,101905.45
2023-01-29T07:28:49.367Z,101886.31
2023-01-29T07:31:17.833Z,101901.79
2023-01-29T07:33:47.821Z,101902.80
2023-01-29T07:36:16.304Z,101905.69
2023-01-29T07:38:44.570Z,101904.41
2023-01-29T07:41:12.974Z,101902.60
2023-01-29T07:43:41.333Z,101906.02
2023-01-29T07:46:09.750Z,101905.29
2023-01-29T07:48:38.067Z,101896.52
2023-01-29T07:51:06.590Z,101893.24
2023-01-29T07:53:36.016Z,101889.40
2023-01-29T07:56:04.559Z,101880.57
2023-01-29T07:58:34.446Z,101873.21
2023-01-29T08:01:08.008Z,101868.20
2023-01-29T08:03:36.888Z,101864.55
2023-01-29T08:06:05.466Z,101860.16
2023-01-29T08:08:34.163Z,101861.08
2023-01-29T08:11:04.232Z,101842.80
2023-01-29T08:13:33.325Z,101851.85
2023-01-29T08:16:03.062Z,101850.52
2023-01-29T08:18:34.318Z,101833.16
2023-01-29T08:21:02.688Z,101844.24
2023-01-29T08:23:30.990Z,101836.11
2023-01-29T08:25:59.393Z,101836.39
2023-01-29T08:28:27.790Z,101835.51
2023-01-29T08:30:56.152Z,101831.55
2023-01-29T08:33:37.953Z,101835.38
2023-01-29T08:36:08.544Z,101830.27
2023-01-29T08:38:37.272Z,101827.03
2023-01-29T08:41:06.518Z,101836.55
2023-01-29T08:43:39.248Z,101818.45
2023-01-29T08:46:08.656Z,101836.39
2023-01-29T08:48:38.488Z,101834.56
2023-01-29T08:51:06.829Z,101834.55
2023-01-29T08:53:35.689Z,101840.45
2023-01-29T08:56:04.336Z,101794.11
2023-01-29T08:58:32.956Z,101839.73
2023-01-29T09:01:09.226Z,101835.41
2023-01-29T09:03:41.201Z,101832.67
2023-01-29T09:06:11.488Z,101824.98
2023-01-29T09:08:40.657Z,101829.44
2023-01-29T09:11:09.239Z,101842.91
2023-01-29T09:13:37.594Z,101842.48
2023-01-29T09:16:06.307Z,101848.70
2023-01-29T09:18:34.723Z,101842.34
2023-01-29T09:21:03.136Z,101842.73
2023-01-29T09:23:34.151Z,101839.92
2023-01-29T09:26:02.451Z,101837.89
2023-01-29T09:28:30.823Z,101836.45
2023-01-29T09:31:02.927Z,101827.90
2023-01-29T09:33:32.588Z,101829.84
2023-01-29T09:36:03.885Z,101833.73
2023-01-29T09:38:32.123Z,101827.39
2023-01-29T09:41:38.372Z,101817.38
2023-01-29T09:44:44.299Z,101818.39
2023-01-29T09:47:16.951Z,101824.16
2023-01-29T09:49:57.332Z,101808.39
2023-01-29T09:52:30.448Z,101818.17
2023-01-29T09:55:13.022Z,101816.46
2023-01-29T09:57:54.851Z,101810.98
2023-01-29T10:00:35.119Z,101786.24
2023-01-29T10:03:03.443Z,101796.19
2023-01-29T10:05:50.141Z,101794.26
2023-01-29T10:08:36.620Z,101789.83
2023-01-29T10:11:23.876Z,101793.66
2023-01-29T10:14:13.901Z,101786.83
2023-01-29T10:17:09.523Z,101771.09
2023-01-29T10:19:56.009Z,101766.46
2023-01-29T10:22:33.347Z,101765.50
2023-01-29T10:25:05.629Z,101740.11
2023-01-29T10:27:38.767Z,101760.28
2023-01-29T10:30:18.433Z,101750.89
2023-01-29T10:32:48.896Z,101748.67
2023-01-29T10:35:27.704Z,101744.44
2023-01-29T10:37:58.688Z,101747.21
2023-01-29T10:40:35.013Z,101750.69
2023-01-29T10:43:14.702Z,101746.25
2023-01-29T10:46:10.327Z,101751.99
2023-01-29T10:48:58.451Z,101732.75
2023-01-29T10:51:42.664Z,101725.02
2023-01-29T10:54:29.344Z,101692.39
2023-01-29T10:57:18.599Z,101715.95
2023-01-29T11:00:07.698Z,101718.75
2023-01-29T11:02:36.797Z,101699.65
2023-01-29T11:05:19.718Z,101706.92
2023-01-29T11:07:49.742Z,101715.83
2023-01-29T11:10:22.635Z,101707.88
2023-01-29T11:12:51.141Z,101709.23
2023-01-29T11:15:30.922Z,101691.67
2023-01-29T11:18:14.355Z,101700.39
2023-01-29T11:20:44.560Z,101689.94
2023-01-29T11:23:28.675Z,101686.41
2023-01-29T11:25:58.765Z,101683.41
2023-01-29T11:28:48.431Z,101682.48
2023-01-29T11:31:29.893Z,101678.60
2023-01-29T11:34:19.585Z,101682.73
2023-01-29T11:37:01.867Z,101678.33
2023-01-29T11:39:32.651Z,101657.19
2023-01-29T11:42:04.716Z,101650.36
2023-01-29T11:44:33.207Z,101651.76
2023-01-29T11:47:16.577Z,101651.23
2023-01-29T11:49:54.013Z,101644.57
2023-01-29T11:52:28.525Z,101649.19
2023-01-29T11:55:01.162Z,101627.95
2023-01-29T11:57:36.175Z,101640.21
2023-01-29T12:00:08.203Z,101590.79
2023-01-29T12:02:42.225Z,101645.14
2023-01-29T12:05:22.778Z,101646.59
2023-01-29T12:07:54.756Z,101643.89
2023-01-29T12:10:37.290Z,101644.06
2023-01-29T12:13:12.212Z,101631.55
2023-01-29T12:15:42.881Z,101631.59
2023-01-29T12:18:30.566Z,101623.20
2023-01-29T12:21:04.932Z,101605.86
2023-01-29T12:23:45.443Z,101629.80
2023-01-29T12:26:24.751Z,101634.02
2023-01-29T12:29:27.290Z,101627.52
2023-01-29T12:32:06.231Z,101627.06
2023-01-29T12:34:47.125Z,101610.43
2023-01-29T12:37:36.275Z,101625.00
2023-01-29T12:40:16.395Z,101610.99
2023-01-29T12:42:50.866Z,101606.12
2023-01-29T12:45:22.432Z,101592.41
2023-01-29T12:47:55.764Z,101591.69
2023-01-29T12:50:33.043Z,101589.20
2023-01-29T12:53:28.957Z,101581.08
2023-01-29T12:56:06.384Z,101584.64
2023-01-29T12:58:41.858Z,101578.98
2023-01-29T13:01:17.797Z,101584.42
2023-01-29T13:04:10.660Z,101575.56
2023-01-29T13:06:48.156Z,101573.27
2023-01-29T13:09:22.481Z,101573.30
2023-01-29T13:11:53.763Z,101570.17
2023-01-29T13:15:01.493Z,101559.99
2023-01-29T13:17:53.736Z,101552.13
2023-01-29T13:20:29.137Z,101548.89
2023-01-29T13:23:06.333Z,101554.91
2023-01-29T13:25:34.636Z,101553.91
2023-01-29T13:28:03.215Z,101556.03
2023-01-29T13:30:36.743Z,101557.50
2023-01-29T13:33:10.220Z,101555.54
2023-01-29T13:35:45.892Z,101552.33
2023-01-29T13:38:32.466Z,101553.05
2023-01-29T13:41:04.914Z,101560.51
2023-01-29T13:43:37.767Z,101559.45
2023-01-29T13:46:17.867Z,101566.23
2023-01-29T13:48:49.856Z,101560.92
2023-01-29T13:51:23.344Z,101562.02
2023-01-29T13:54:02.594Z,101559.77
2023-01-29T13:56:43.219Z,101552.67
2023-01-29T13:59:49.590Z,101556.54
2023-01-29T14:02:20.497Z,101552.08
2023-01-29T14:04:48.957Z,101551.56
2023-01-29T14:07:40.386Z,101548.11
2023-01-29T14:10:20.012Z,101541.41
2023-01-29T14:12:53.183Z,101536.02
2023-01-29T14:15:28.694Z,101550.56
2023-01-29T14:18:07.219Z,101529.94
2023-01-29T14:20:47.048Z,101549.08
2023-01-29T14:23:34.012Z,101549.27
2023-01-29T14:26:06.292Z,101556.29
2023-01-29T14:28:35.496Z,101531.89
2023-01-29T14:31:04.367Z,101549.02
2023-01-29T14:33:39.806Z,101559.83
2023-01-29T14:36:18.279Z,101554.13
2023-01-29T14:38:52.560Z,101559.23
2023-01-29T14:41:27.386Z,101553.89
2023-01-29T14:44:40.020Z,101543.55
2023-01-29T14:47:19.485Z,101547.98
2023-01-29T14:49:59.295Z,101541.50
2023-01-29T14:52:39.261Z,101536.53
2023-01-29T14:55:26.064Z,101541.48
2023-01-29T14:57:58.398Z,101533.39
2023-01-29T15:00:50.569Z,101527.73
2023-01-29T15:03:48.806Z,101521.16
2023-01-29T15:06:32.701Z,101520.64
2023-01-29T15:09:13.378Z,101515.59
2023-01-29T15:11:52.513Z,101511.70
2023-01-29T15:14:36.836Z,101525.61
2023-01-29T15:17:17.469Z,101527.36
2023-01-29T15:19:50.750Z,101521.67
2023-01-29T15:22:21.649Z,101525.44
2023-01-29T15:25:07.478Z,101524.31
2023-01-29T15:27:36.144Z,101523.45
2023-01-29T15:30:08.301Z,101525.79
2023-01-29T15:32:39.257Z,101521.10
2023-01-29T15:35:20.418Z,101518.81
2023-01-29T15:38:20.421Z,101509.27
2023-01-29T15:40:56.733Z,101502.45
2023-01-29T15:43:37.085Z,101492.89
2023-01-29T15:46:12.564Z,101470.05
2023-01-29T15:48:44.331Z,101475.46
2023-01-29T15:51:18.893Z,101486.67
2023-01-29T15:53:47.869Z,101483.61
2023-01-29T15:56:20.797Z,101477.77
2023-01-29T15:58:52.151Z,101473.39
2023-01-29T16:01:20.601Z,101437.29
2023-01-29T16:03:52.108Z,101465.80
2023-01-29T16:06:22.455Z,101459.20
2023-01-29T16:08:54.686Z,101452.66
2023-01-29T16:11:23.314Z,101437.09
2023-01-29T16:13:53.324Z,101449.90
2023-01-29T16:16:26.912Z,101451.34
2023-01-29T16:19:00.374Z,101442.98
2023-01-29T16:21:38.115Z,101431.87
2023-01-29T16:24:14.104Z,101431.79
2023-01-29T16:26:45.534Z,101434.57
2023-01-29T16:29:17.346Z,101419.14
2023-01-29T16:31:48.718Z,101437.96
2023-01-29T16:34:35.223Z,101443.14
2023-01-29T16:37:07.757Z,101439.09
2023-01-29T16:39:39.831Z,101443.25
2023-01-29T16:42:17.501Z,101442.15
2023-01-29T16:44:51.727Z,101444.56
2023-01-29T16:47:28.398Z,101441.30
2023-01-29T16:50:17.923Z,101440.51
2023-01-29T16:53:12.697Z,101436.65
2023-01-29T16:55:46.159Z,101433.73
2023-01-29T16:58:21.516Z,101432.41
2023-01-29T17:00:54.178Z,101430.73
2023-01-29T17:03:27.149Z,101434.59
2023-01-29T17:05:55.596Z,101440.04
2023-01-29T17:08:32.427Z,101435.60
2023-01-29T17:11:02.033Z,101439.52
2023-01-29T17:13:42.963Z,101426.13
2023-01-29T17:16:23.608Z,101426.65
2023-01-29T17:18:52.176Z,101423.48
2023-01-29T17:21:20.700Z,101417.73
2023-01-29T17:23:49.321Z,101412.98
2023-01-29T17:26:18.662Z,101403.21
2023-01-29T17:28:50.203Z,101402.83
2023-01-29T17:31:18.756Z,101393.70
2023-01-29T17:33:47.632Z,101396.05
2023-01-29T17:36:17.771Z,101394.89
2023-01-29T17:38:47.092Z,101392.11
2023-01-29T17:41:23.272Z,101380.63
2023-01-29T17:43:52.076Z,101377.52
2023-01-29T17:46:20.566Z,101356.51
2023-01-29T17:48:52.576Z,101371.16
2023-01-29T17:51:21.493Z,101369.92
2023-01-29T17:53:50.712Z,101362.17
2023-01-29T17:56:29.706Z,101356.14
2023-01-29T17:58:58.198Z,101350.61
2023-01-29T18:01:26.624Z,101348.14
2023-01-29T18:03:56.239Z,101340.73
2023-01-29T18:06:29.403Z,101341.02
2023-01-29T18:08:58.772Z,101335.80
2023-01-29T18:11:27.353Z,101334.35
2023-01-29T18:13:56.922Z,101327.48
2023-01-29T18:16:25.865Z,101323.27
2023-01-29T18:18:55.063Z,101315.12
2023-01-29T18:21:23.505Z,101312.20
2023-01-29T18:23:51.877Z,101306.10
2023-01-29T18:26:20.363Z,101303.44
2023-01-29T18:28:50.275Z,101302.25
2023-01-29T18:31:18.737Z,101296.55
2023-01-29T18:33:47.597Z,101296.27
2023-01-29T18:36:15.987Z,101289.14
2023-01-29T18:38:44.694Z,101284.88
2023-01-29T18:41:13.198Z,101275.92
2023-01-29T18:43:44.933Z,101253.94
2023-01-29T18:46:13.502Z,101245.92
2023-01-29T18:48:42.965Z,101258.36
2023-01-29T18:51:11.581Z,101256.71
2023-01-29T18:53:39.998Z,101249.23
2023-01-29T18:56:10.163Z,101246.45
2023-01-29T18:58:38.609Z,101241.54
2023-01-29T19:01:11.024Z,101234.94
2023-01-29T19:03:41.176Z,101239.45
2023-01-29T19:06:11.448Z,101232.38
2023-01-29T19:08:40.995Z,101232.02
2023-01-29T19:11:09.864Z,101219.27
2023-01-29T19:13:38.881Z,101220.19
2023-01-29T19:16:12.764Z,101211.14
2023-01-29T19:18:41.294Z,101213.91
2023-01-29T19:21:12.805Z,101209.21
2023-01-29T19:23:43.230Z,101205.49
2023-01-29T19:26:12.243Z,101200.13
2023-01-29T19:28:40.779Z,101195.39
2023-01-29T19:31:12.113Z,101188.42
2023-01-29T19:33:40.894Z,101187.10
2023-01-29T19:36:09.623Z,101187.98
2023-01-29T19:38:38.906Z,101187.95
2023-01-29T19:41:07.319Z,101186.66
2023-01-29T19:43:38.262Z,101182.81
2023-01-29T19:46:07.678Z,101180.16
2023-01-29T19:48:36.701Z,101175.82
2023-01-29T19:51:08.713Z,101173.48
2023-01-29T19:53:38.599Z,101169.57
2023-01-29T19:56:10.796Z,101166.48
2023-01-29T19:58:39.465Z,101163.79
2023-01-29T20:01:15.536Z,101166.55
2023-01-29T20:03:48.209Z,101161.67
2023-01-29T20:06:20.059Z,101155.34
2023-01-29T20:08:48.671Z,101156.10
2023-01-29T20:11:20.648Z,101147.33
2023-01-29T20:13:50.893Z,101143.50
2023-01-29T20:16:20.409Z,101143.23
2023-01-29T20:18:49.062Z,101133.45
2023-01-29T20:21:22.924Z,101130.75
2023-01-29T20:23:52.451Z,101124.99
2023-01-29T20:26:22.213Z,101112.97
2023-01-29T20:28:50.912Z,101103.80
2023-01-29T20:31:19.355Z,101102.90
2023-01-29T20:33:47.812Z,101103.80
2023-01-29T20:36:16.251Z,101099.13
2023-01-29T20:38:44.855Z,101086.77
2023-01-29T20:41:15.812Z,101089.41
2023-01-29T20:43:45.471Z,101082.89
2023-01-29T20:46:13.885Z,101077.18
2023-01-29T20:48:42.599Z,101074.58
2023-01-29T20:51:15.487Z,101067.61
2023-01-29T20:53:46.364Z,101066.59
2023-01-29T20:56:16.899Z,101070.75
2023-01-29T20:58:46.932Z,101060.77
2023-01-29T21:01:18.824Z,101047.77
2023-01-29T21:03:48.080Z,101059.31
2023-01-29T21:06:16.439Z,101050.70
2023-01-29T21:08:44.795Z,101046.50
2023-01-29T21:11:13.071Z,101041.02
2023-01-29T21:13:42.904Z,101038.20
2023-01-29T21:16:11.504Z,101023.14
2023-01-29T21:18:40.077Z,101035.27
2023-01-29T21:21:08.458Z,101030.62
2023-01-29T21:23:36.875Z,101017.29
2023-01-29T21:26:06.458Z,101012.71
2023-01-29T21:28:35.011Z,101004.38
2023-01-29T21:31:09.490Z,101000.14
2023-01-29T21:33:38.628Z,100996.80
2023-01-29T21:36:08.140Z,100998.31
2023-01-29T21:38:36.743Z,100997.77
2023-01-29T21:41:09.020Z,100997.38
2023-01-29T21:43:37.772Z,100993.39
2023-01-29T21:46:14.038Z,100984.61
2023-01-29T21:48:43.490Z,100981.46
2023-01-29T21:51:11.825Z,100971.91
2023-01-29T21:53:40.160Z,100969.54
2023-01-29T21:56:08.539Z,100961.52
2023-01-29T21:58:37.064Z,100962.71
2023-01-29T22:01:18.221Z,100958.27
2023-01-29T22:03:55.435Z,100954.05
2023-01-29T22:06:24.297Z,100938.02
2023-01-29T22:08:52.811Z,100902.95
2023-01-29T22:11:21.301Z,100935.75
2023-01-29T22:13:49.762Z,100928.68
2023-01-29T22:16:18.200Z,100903.27
2023-01-29T22:18:49.202Z,100914.38
2023-01-29T22:21:17.619Z,100891.03
2023-01-29T22:23:49.554Z,100893.15
2023-01-29T22:26:18.071Z,100904.61
2023-01-29T22:28:47.446Z,100910.48
2023-01-29T22:31:16.011Z,100915.10
2023-01-29T22:33:44.378Z,100909.75
2023-01-29T22:36:12.932Z,100909.60
2023-01-29T22:38:44.771Z,100876.84
2023-01-29T22:41:13.871Z,100888.61
2023-01-29T22:43:44.162Z,100867.33
2023-01-29T22:46:13.172Z,100886.64
2023-01-29T22:48:41.755Z,100874.02
2023-01-29T22:51:10.552Z,100866.41
2023-01-29T22:53:41.425Z,100861.02
2023-01-29T22:56:11.335Z,100856.67
2023-01-29T22:58:41.217Z,100842.84
2023-01-29T23:01:10.318Z,100832.04
2023-01-29T23:03:47.991Z,100821.34
2023-01-29T23:06:17.586Z,100814.84
2023-01-29T23:08:45.904Z,100805.02
2023-01-29T23:11:17.784Z,100791.61
2023-01-29T23:13:48.964Z,100786.54
2023-01-29T23:16:18.297Z,100781.66
2023-01-29T23:18:50.955Z,100740.81
2023-01-29T23:21:21.624Z,100775.34
2023-01-29T23:23:52.420Z,100768.21
2023-01-29T23:26:39.752Z,100757.56
2023-01-29T23:29:08.118Z,100745.11
2023-01-29T23:31:36.610Z,100729.83
2023-01-29T23:34:05.129Z,100718.45
2023-01-29T23:36:33.506Z,100718.02
2023-01-29T23:39:01.841Z,100715.95
2023-01-29T23:41:30.238Z,100709.41
2023-01-29T23:43:58.702Z,100692.63
2023-01-29T23:46:27.419Z,100698.61
2023-01-29T23:48:55.737Z,100685.41
2023-01-29T23:51:24.427Z,100679.14
2023-01-29T23:53:53.159Z,100675.84
2023-01-29T23:56:21.531Z,100684.27
2023-01-29T23:58:56.669Z,100676.50
